sensor_id;sensor_type;location;lat;lon;timestamp;temperature;humidity
52963;DHT22;38827;53.024;6.596;2023-10-19T00:00:55;8.60;79.70
52963;DHT22;38827;53.024;6.596;2023-10-19T00:03:24;8.60;79.80
52963;DHT22;38827;53.024;6.596;2023-10-19T00:05:50;8.60;80.20
52963;DHT22;38827;53.024;6.596;2023-10-19T00:08:16;8.60;80.40
52963;DHT22;38827;53.024;6.596;2023-10-19T00:10:50;8.60;80.50
52963;DHT22;38827;53.024;6.596;2023-10-19T00:13:34;8.60;80.50
52963;DHT22;38827;53.024;6.596;2023-10-19T00:16:01;8.60;80.80
52963;DHT22;38827;53.024;6.596;2023-10-19T00:18:36;8.60;80.80
52963;DHT22;38827;53.024;6.596;2023-10-19T00:21:01;8.60;81.20
52963;DHT22;38827;53.024;6.596;2023-10-19T00:23:37;8.50;81.30
52963;DHT22;38827;53.024;6.596;2023-10-19T00:26:05;8.50;81.40
52963;DHT22;38827;53.024;6.596;2023-10-19T00:28:34;8.50;81.60
52963;DHT22;38827;53.024;6.596;2023-10-19T00:31:04;8.50;81.80
52963;DHT22;38827;53.024;6.596;2023-10-19T00:33:36;8.50;81.80
52963;DHT22;38827;53.024;6.596;2023-10-19T00:36:08;8.50;82.00
52963;DHT22;38827;53.024;6.596;2023-10-19T00:38:43;8.50;82.00
52963;DHT22;38827;53.024;6.596;2023-10-19T00:41:17;8.50;82.30
52963;DHT22;38827;53.024;6.596;2023-10-19T00:43:55;8.50;82.20
52963;DHT22;38827;53.024;6.596;2023-10-19T00:46:37;8.50;82.60
52963;DHT22;38827;53.024;6.596;2023-10-19T00:49:12;8.40;82.60
52963;DHT22;38827;53.024;6.596;2023-10-19T00:51:43;8.50;82.60
52963;DHT22;38827;53.024;6.596;2023-10-19T00:54:27;8.50;82.80
52963;DHT22;38827;53.024;6.596;2023-10-19T00:57:17;8.50;82.90
52963;DHT22;38827;53.024;6.596;2023-10-19T00:59:48;8.40;83.10
52963;DHT22;38827;53.024;6.596;2023-10-19T01:02:19;8.50;83.30
52963;DHT22;38827;53.024;6.596;2023-10-19T01:04:52;8.50;83.20
52963;DHT22;38827;53.024;6.596;2023-10-19T01:07:22;8.40;83.30
52963;DHT22;38827;53.024;6.596;2023-10-19T01:09:57;8.50;83.40
52963;DHT22;38827;53.024;6.596;2023-10-19T01:12:24;8.50;83.70
52963;DHT22;38827;53.024;6.596;2023-10-19T01:15:09;8.50;83.70
52963;DHT22;38827;53.024;6.596;2023-10-19T01:17:58;8.50;83.80
52963;DHT22;38827;53.024;6.596;2023-10-19T01:20:25;8.40;84.00
52963;DHT22;38827;53.024;6.596;2023-10-19T01:25:33;8.40;84.30
52963;DHT22;38827;53.024;6.596;2023-10-19T01:28:09;8.40;84.40
52963;DHT22;38827;53.024;6.596;2023-10-19T01:30:36;8.40;84.70
52963;DHT22;38827;53.024;6.596;2023-10-19T01:33:04;8.50;85.00
52963;DHT22;38827;53.024;6.596;2023-10-19T01:35:33;8.40;84.90
52963;DHT22;38827;53.024;6.596;2023-10-19T01:38:18;8.40;84.90
52963;DHT22;38827;53.024;6.596;2023-10-19T01:40:43;8.40;85.00
52963;DHT22;38827;53.024;6.596;2023-10-19T01:43:15;8.40;85.00
52963;DHT22;38827;53.024;6.596;2023-10-19T01:45:48;8.50;85.10
52963;DHT22;38827;53.024;6.596;2023-10-19T01:48:14;8.40;85.20
52963;DHT22;38827;53.024;6.596;2023-10-19T01:50:40;8.40;85.30
52963;DHT22;38827;53.024;6.596;2023-10-19T01:53:07;8.40;86.00
52963;DHT22;38827;53.024;6.596;2023-10-19T01:55:47;8.40;85.70
52963;DHT22;38827;53.024;6.596;2023-10-19T01:58:13;8.40;85.30
52963;DHT22;38827;53.024;6.596;2023-10-19T02:00:43;8.40;85.40
52963;DHT22;38827;53.024;6.596;2023-10-19T02:03:09;8.50;85.70
52963;DHT22;38827;53.024;6.596;2023-10-19T02:05:39;8.50;85.70
52963;DHT22;38827;53.024;6.596;2023-10-19T02:08:06;8.50;85.80
52963;DHT22;38827;53.024;6.596;2023-10-19T02:10:35;8.50;86.10
52963;DHT22;38827;53.024;6.596;2023-10-19T02:13:01;8.50;86.10
52963;DHT22;38827;53.024;6.596;2023-10-19T02:15:34;8.40;86.40
52963;DHT22;38827;53.024;6.596;2023-10-19T02:18:03;8.40;86.30
52963;DHT22;38827;53.024;6.596;2023-10-19T02:20:30;8.50;86.30
52963;DHT22;38827;53.024;6.596;2023-10-19T02:22:57;8.40;86.40
52963;DHT22;38827;53.024;6.596;2023-10-19T02:25:24;8.40;87.20
52963;DHT22;38827;53.024;6.596;2023-10-19T02:28:04;8.40;87.00
52963;DHT22;38827;53.024;6.596;2023-10-19T02:30:32;8.40;86.80
52963;DHT22;38827;53.024;6.596;2023-10-19T02:32:59;8.40;87.00
52963;DHT22;38827;53.024;6.596;2023-10-19T02:35:26;8.40;87.00
52963;DHT22;38827;53.024;6.596;2023-10-19T02:38:01;8.40;87.00
52963;DHT22;38827;53.024;6.596;2023-10-19T02:40:30;8.40;87.00
52963;DHT22;38827;53.024;6.596;2023-10-19T02:42:59;8.40;87.30
52963;DHT22;38827;53.024;6.596;2023-10-19T02:45:28;8.40;87.20
52963;DHT22;38827;53.024;6.596;2023-10-19T02:47:58;8.40;87.50
52963;DHT22;38827;53.024;6.596;2023-10-19T02:50:24;8.40;87.30
52963;DHT22;38827;53.024;6.596;2023-10-19T02:52:52;8.50;87.40
52963;DHT22;38827;53.024;6.596;2023-10-19T02:55:19;8.50;87.70
52963;DHT22;38827;53.024;6.596;2023-10-19T02:57:48;8.40;88.50
52963;DHT22;38827;53.024;6.596;2023-10-19T03:00:15;8.40;88.00
52963;DHT22;38827;53.024;6.596;2023-10-19T03:02:45;8.40;87.80
52963;DHT22;38827;53.024;6.596;2023-10-19T03:05:11;8.50;87.70
52963;DHT22;38827;53.024;6.596;2023-10-19T03:07:43;8.50;87.80
52963;DHT22;38827;53.024;6.596;2023-10-19T03:10:10;8.50;87.90
52963;DHT22;38827;53.024;6.596;2023-10-19T03:12:50;8.50;88.20
52963;DHT22;38827;53.024;6.596;2023-10-19T03:15:16;8.50;88.20
52963;DHT22;38827;53.024;6.596;2023-10-19T03:17:51;8.50;88.20
52963;DHT22;38827;53.024;6.596;2023-10-19T03:20:16;8.50;88.30
52963;DHT22;38827;53.024;6.596;2023-10-19T03:22:48;8.50;88.20
52963;DHT22;38827;53.024;6.596;2023-10-19T03:25:14;8.50;88.40
52963;DHT22;38827;53.024;6.596;2023-10-19T03:28:01;8.50;88.60
52963;DHT22;38827;53.024;6.596;2023-10-19T03:30:42;8.50;88.40
52963;DHT22;38827;53.024;6.596;2023-10-19T03:33:07;8.50;88.70
52963;DHT22;38827;53.024;6.596;2023-10-19T03:35:37;8.50;88.80
52963;DHT22;38827;53.024;6.596;2023-10-19T03:38:04;8.60;88.70
52963;DHT22;38827;53.024;6.596;2023-10-19T03:40:44;8.50;88.80
52963;DHT22;38827;53.024;6.596;2023-10-19T03:43:19;8.60;89.00
52963;DHT22;38827;53.024;6.596;2023-10-19T03:45:52;8.60;89.10
52963;DHT22;38827;53.024;6.596;2023-10-19T03:48:21;8.60;89.10
52963;DHT22;38827;53.024;6.596;2023-10-19T03:50:55;8.60;89.00
52963;DHT22;38827;53.024;6.596;2023-10-19T03:53:22;8.60;89.60
52963;DHT22;38827;53.024;6.596;2023-10-19T03:55:49;8.50;89.50
52963;DHT22;38827;53.024;6.596;2023-10-19T03:58:18;8.50;89.50
52963;DHT22;38827;53.024;6.596;2023-10-19T04:00:47;8.60;89.30
52963;DHT22;38827;53.024;6.596;2023-10-19T04:03:17;8.60;89.20
52963;DHT22;38827;53.024;6.596;2023-10-19T04:05:46;8.60;89.20
52963;DHT22;38827;53.024;6.596;2023-10-19T04:08:14;8.60;89.20
52963;DHT22;38827;53.024;6.596;2023-10-19T04:10:45;8.60;89.20
52963;DHT22;38827;53.024;6.596;2023-10-19T04:13:13;8.60;89.30
52963;DHT22;38827;53.024;6.596;2023-10-19T04:15:39;8.60;89.50
52963;DHT22;38827;53.024;6.596;2023-10-19T04:18:05;8.60;89.50
52963;DHT22;38827;53.024;6.596;2023-10-19T04:20:40;8.60;89.30
52963;DHT22;38827;53.024;6.596;2023-10-19T04:23:21;8.60;89.40
52963;DHT22;38827;53.024;6.596;2023-10-19T04:25:47;8.60;89.60
52963;DHT22;38827;53.024;6.596;2023-10-19T04:28:14;8.60;89.60
52963;DHT22;38827;53.024;6.596;2023-10-19T04:30:40;8.60;89.90
52963;DHT22;38827;53.024;6.596;2023-10-19T04:33:05;8.70;89.70
52963;DHT22;38827;53.024;6.596;2023-10-19T04:35:40;8.70;89.60
52963;DHT22;38827;53.024;6.596;2023-10-19T04:38:10;8.70;89.70
52963;DHT22;38827;53.024;6.596;2023-10-19T04:40:35;8.70;90.00
52963;DHT22;38827;53.024;6.596;2023-10-19T04:43:02;8.70;90.00
52963;DHT22;38827;53.024;6.596;2023-10-19T04:45:30;8.70;90.00
52963;DHT22;38827;53.024;6.596;2023-10-19T04:47:56;8.70;89.90
52963;DHT22;38827;53.024;6.596;2023-10-19T04:50:21;8.70;90.00
52963;DHT22;38827;53.024;6.596;2023-10-19T04:52:47;8.70;90.00
52963;DHT22;38827;53.024;6.596;2023-10-19T04:55:13;8.70;90.00
52963;DHT22;38827;53.024;6.596;2023-10-19T04:57:39;8.70;90.10
52963;DHT22;38827;53.024;6.596;2023-10-19T05:00:05;8.80;90.20
52963;DHT22;38827;53.024;6.596;2023-10-19T05:02:31;8.70;90.10
52963;DHT22;38827;53.024;6.596;2023-10-19T05:04:56;8.80;90.00
52963;DHT22;38827;53.024;6.596;2023-10-19T05:07:22;8.80;90.00
52963;DHT22;38827;53.024;6.596;2023-10-19T05:09:48;8.80;90.10
52963;DHT22;38827;53.024;6.596;2023-10-19T05:12:14;8.80;90.20
52963;DHT22;38827;53.024;6.596;2023-10-19T05:14:41;8.80;90.10
52963;DHT22;38827;53.024;6.596;2023-10-19T05:17:07;8.80;90.20
52963;DHT22;38827;53.024;6.596;2023-10-19T05:19:38;8.80;90.40
52963;DHT22;38827;53.024;6.596;2023-10-19T05:22:06;8.80;90.60
52963;DHT22;38827;53.024;6.596;2023-10-19T05:24:32;8.80;90.40
52963;DHT22;38827;53.024;6.596;2023-10-19T05:26:58;8.80;90.30
52963;DHT22;38827;53.024;6.596;2023-10-19T05:29:24;8.80;90.20
52963;DHT22;38827;53.024;6.596;2023-10-19T05:31:53;8.80;90.20
52963;DHT22;38827;53.024;6.596;2023-10-19T05:34:20;8.90;90.20
52963;DHT22;38827;53.024;6.596;2023-10-19T05:36:46;8.90;90.20
52963;DHT22;38827;53.024;6.596;2023-10-19T05:39:15;8.90;90.20
52963;DHT22;38827;53.024;6.596;2023-10-19T05:41:46;8.90;90.30
52963;DHT22;38827;53.024;6.596;2023-10-19T05:44:12;8.90;90.30
52963;DHT22;38827;53.024;6.596;2023-10-19T05:46:38;8.90;90.30
52963;DHT22;38827;53.024;6.596;2023-10-19T05:49:05;8.90;90.30
52963;DHT22;38827;53.024;6.596;2023-10-19T05:51:32;8.90;90.40
52963;DHT22;38827;53.024;6.596;2023-10-19T05:53:58;8.90;90.40
52963;DHT22;38827;53.024;6.596;2023-10-19T05:56:30;8.90;90.50
52963;DHT22;38827;53.024;6.596;2023-10-19T05:58:56;8.90;90.40
52963;DHT22;38827;53.024;6.596;2023-10-19T06:01:25;9.00;90.50
52963;DHT22;38827;53.024;6.596;2023-10-19T06:03:52;9.00;90.40
52963;DHT22;38827;53.024;6.596;2023-10-19T06:06:19;8.90;90.30
52963;DHT22;38827;53.024;6.596;2023-10-19T06:08:45;9.00;90.40
52963;DHT22;38827;53.024;6.596;2023-10-19T06:11:11;9.00;90.50
52963;DHT22;38827;53.024;6.596;2023-10-19T06:13:36;9.00;90.50
52963;DHT22;38827;53.024;6.596;2023-10-19T06:16:02;9.00;90.40
52963;DHT22;38827;53.024;6.596;2023-10-19T06:18:30;9.00;90.60
52963;DHT22;38827;53.024;6.596;2023-10-19T06:20:57;9.00;90.60
52963;DHT22;38827;53.024;6.596;2023-10-19T06:23:23;9.00;90.60
52963;DHT22;38827;53.024;6.596;2023-10-19T06:25:48;9.00;90.50
52963;DHT22;38827;53.024;6.596;2023-10-19T06:28:16;9.00;90.60
52963;DHT22;38827;53.024;6.596;2023-10-19T06:30:41;9.00;90.60
52963;DHT22;38827;53.024;6.596;2023-10-19T06:33:08;9.10;90.70
52963;DHT22;38827;53.024;6.596;2023-10-19T06:35:34;9.00;90.60
52963;DHT22;38827;53.024;6.596;2023-10-19T06:38:01;9.00;90.60
52963;DHT22;38827;53.024;6.596;2023-10-19T06:40:29;9.10;90.60
52963;DHT22;38827;53.024;6.596;2023-10-19T06:43:05;9.00;90.60
52963;DHT22;38827;53.024;6.596;2023-10-19T06:45:39;9.00;90.60
52963;DHT22;38827;53.024;6.596;2023-10-19T06:48:05;9.00;90.60
52963;DHT22;38827;53.024;6.596;2023-10-19T06:50:32;9.10;90.60
52963;DHT22;38827;53.024;6.596;2023-10-19T06:52:58;9.00;90.70
52963;DHT22;38827;53.024;6.596;2023-10-19T06:55:24;9.10;90.60
52963;DHT22;38827;53.024;6.596;2023-10-19T06:57:52;9.10;90.60
52963;DHT22;38827;53.024;6.596;2023-10-19T07:00:19;9.10;90.60
52963;DHT22;38827;53.024;6.596;2023-10-19T07:02:46;9.10;90.70
52963;DHT22;38827;53.024;6.596;2023-10-19T07:05:15;9.10;90.50
52963;DHT22;38827;53.024;6.596;2023-10-19T07:07:47;9.10;90.60
52963;DHT22;38827;53.024;6.596;2023-10-19T07:10:14;9.10;90.60
52963;DHT22;38827;53.024;6.596;2023-10-19T07:12:42;9.10;90.60
52963;DHT22;38827;53.024;6.596;2023-10-19T07:15:09;9.10;90.70
52963;DHT22;38827;53.024;6.596;2023-10-19T07:17:43;9.10;90.80
52963;DHT22;38827;53.024;6.596;2023-10-19T07:20:10;9.20;90.80
52963;DHT22;38827;53.024;6.596;2023-10-19T07:22:58;9.20;90.80
52963;DHT22;38827;53.024;6.596;2023-10-19T07:25:46;9.20;90.80
52963;DHT22;38827;53.024;6.596;2023-10-19T07:28:14;9.20;90.70
52963;DHT22;38827;53.024;6.596;2023-10-19T07:30:41;9.20;90.60
52963;DHT22;38827;53.024;6.596;2023-10-19T07:33:08;9.20;90.50
52963;DHT22;38827;53.024;6.596;2023-10-19T07:35:36;9.20;90.50
52963;DHT22;38827;53.024;6.596;2023-10-19T07:38:08;9.30;90.50
52963;DHT22;38827;53.024;6.596;2023-10-19T07:40:35;9.30;90.60
52963;DHT22;38827;53.024;6.596;2023-10-19T07:43:01;9.30;90.50
52963;DHT22;38827;53.024;6.596;2023-10-19T07:45:29;9.30;90.60
52963;DHT22;38827;53.024;6.596;2023-10-19T07:47:57;9.30;90.60
52963;DHT22;38827;53.024;6.596;2023-10-19T07:50:23;9.30;90.50
52963;DHT22;38827;53.024;6.596;2023-10-19T07:52:52;9.30;90.50
52963;DHT22;38827;53.024;6.596;2023-10-19T07:55:20;9.30;90.60
52963;DHT22;38827;53.024;6.596;2023-10-19T07:57:50;9.30;90.50
52963;DHT22;38827;53.024;6.596;2023-10-19T08:00:16;9.30;90.50
52963;DHT22;38827;53.024;6.596;2023-10-19T08:02:48;9.30;90.50
52963;DHT22;38827;53.024;6.596;2023-10-19T08:05:14;9.30;90.40
52963;DHT22;38827;53.024;6.596;2023-10-19T08:07:41;9.30;90.50
52963;DHT22;38827;53.024;6.596;2023-10-19T08:10:11;9.30;90.40
52963;DHT22;38827;53.024;6.596;2023-10-19T08:12:40;9.30;90.40
52963;DHT22;38827;53.024;6.596;2023-10-19T08:15:12;9.40;90.50
52963;DHT22;38827;53.024;6.596;2023-10-19T08:17:38;9.40;90.50
52963;DHT22;38827;53.024;6.596;2023-10-19T08:20:08;9.40;90.50
52963;DHT22;38827;53.024;6.596;2023-10-19T08:22:37;9.40;90.50
52963;DHT22;38827;53.024;6.596;2023-10-19T08:25:04;9.40;90.90
52963;DHT22;38827;53.024;6.596;2023-10-19T08:27:38;9.40;90.70
52963;DHT22;38827;53.024;6.596;2023-10-19T08:30:04;9.50;90.50
52963;DHT22;38827;53.024;6.596;2023-10-19T08:32:29;9.50;90.50
52963;DHT22;38827;53.024;6.596;2023-10-19T08:34:58;9.50;90.50
52963;DHT22;38827;53.024;6.596;2023-10-19T08:37:24;9.50;90.60
52963;DHT22;38827;53.024;6.596;2023-10-19T08:39:51;9.50;90.60
52963;DHT22;38827;53.024;6.596;2023-10-19T08:42:17;9.60;90.40
52963;DHT22;38827;53.024;6.596;2023-10-19T08:44:43;9.60;90.70
52963;DHT22;38827;53.024;6.596;2023-10-19T08:47:08;9.70;90.50
52963;DHT22;38827;53.024;6.596;2023-10-19T08:49:34;9.70;90.40
52963;DHT22;38827;53.024;6.596;2023-10-19T08:52:00;9.70;90.20
52963;DHT22;38827;53.024;6.596;2023-10-19T08:54:29;9.70;90.30
52963;DHT22;38827;53.024;6.596;2023-10-19T08:56:56;9.80;90.30
52963;DHT22;38827;53.024;6.596;2023-10-19T08:59:21;9.70;90.30
52963;DHT22;38827;53.024;6.596;2023-10-19T09:01:57;9.80;90.20
52963;DHT22;38827;53.024;6.596;2023-10-19T09:04:28;9.80;90.20
52963;DHT22;38827;53.024;6.596;2023-10-19T09:06:54;9.80;90.30
52963;DHT22;38827;53.024;6.596;2023-10-19T09:09:20;9.80;90.30
52963;DHT22;38827;53.024;6.596;2023-10-19T09:11:49;9.80;90.20
52963;DHT22;38827;53.024;6.596;2023-10-19T09:14:31;9.90;90.30
52963;DHT22;38827;53.024;6.596;2023-10-19T09:17:07;9.90;90.10
52963;DHT22;38827;53.024;6.596;2023-10-19T09:22:03;10.00;90.10
52963;DHT22;38827;53.024;6.596;2023-10-19T09:24:51;10.00;90.00
52963;DHT22;38827;53.024;6.596;2023-10-19T09:27:32;10.00;89.90
52963;DHT22;38827;53.024;6.596;2023-10-19T09:30:00;10.00;89.90
52963;DHT22;38827;53.024;6.596;2023-10-19T09:32:29;10.00;90.00
52963;DHT22;38827;53.024;6.596;2023-10-19T09:34:55;9.90;89.90
52963;DHT22;38827;53.024;6.596;2023-10-19T09:37:21;9.90;90.00
52963;DHT22;38827;53.024;6.596;2023-10-19T09:39:47;10.00;90.10
52963;DHT22;38827;53.024;6.596;2023-10-19T09:42:14;10.00;90.00
52963;DHT22;38827;53.024;6.596;2023-10-19T09:44:48;10.00;90.00
52963;DHT22;38827;53.024;6.596;2023-10-19T09:47:35;10.10;90.10
52963;DHT22;38827;53.024;6.596;2023-10-19T09:50:03;10.10;90.00
52963;DHT22;38827;53.024;6.596;2023-10-19T09:52:32;10.10;89.90
52963;DHT22;38827;53.024;6.596;2023-10-19T09:57:55;10.20;89.90
52963;DHT22;38827;53.024;6.596;2023-10-19T10:00:24;10.20;90.00
52963;DHT22;38827;53.024;6.596;2023-10-19T10:02:51;10.30;89.80
52963;DHT22;38827;53.024;6.596;2023-10-19T10:10:49;10.40;89.60
52963;DHT22;38827;53.024;6.596;2023-10-19T10:15:54;10.50;89.50
52963;DHT22;38827;53.024;6.596;2023-10-19T10:18:23;10.50;89.30
52963;DHT22;38827;53.024;6.596;2023-10-19T10:21:05;10.40;89.20
52963;DHT22;38827;53.024;6.596;2023-10-19T10:23:31;10.50;89.10
52963;DHT22;38827;53.024;6.596;2023-10-19T10:26:00;10.40;89.20
52963;DHT22;38827;53.024;6.596;2023-10-19T10:28:26;10.40;89.20
52963;DHT22;38827;53.024;6.596;2023-10-19T10:31:14;10.50;89.30
52963;DHT22;38827;53.024;6.596;2023-10-19T10:33:48;10.50;89.10
52963;DHT22;38827;53.024;6.596;2023-10-19T10:36:16;10.50;89.20
52963;DHT22;38827;53.024;6.596;2023-10-19T10:38:51;10.50;89.20
52963;DHT22;38827;53.024;6.596;2023-10-19T10:41:21;10.60;89.10
52963;DHT22;38827;53.024;6.596;2023-10-19T10:43:50;10.60;89.20
52963;DHT22;38827;53.024;6.596;2023-10-19T10:46:18;10.60;89.10
52963;DHT22;38827;53.024;6.596;2023-10-19T10:48:44;10.60;89.10
52963;DHT22;38827;53.024;6.596;2023-10-19T10:51:22;10.60;89.00
52963;DHT22;38827;53.024;6.596;2023-10-19T10:53:52;10.70;89.10
52963;DHT22;38827;53.024;6.596;2023-10-19T10:56:19;10.70;89.00
52963;DHT22;38827;53.024;6.596;2023-10-19T10:58:45;10.70;89.00
52963;DHT22;38827;53.024;6.596;2023-10-19T11:01:11;10.80;88.90
52963;DHT22;38827;53.024;6.596;2023-10-19T11:03:44;10.80;88.80
52963;DHT22;38827;53.024;6.596;2023-10-19T11:06:18;10.80;88.70
52963;DHT22;38827;53.024;6.596;2023-10-19T11:08:49;10.80;88.80
52963;DHT22;38827;53.024;6.596;2023-10-19T11:11:15;10.80;88.80
52963;DHT22;38827;53.024;6.596;2023-10-19T11:13:41;10.90;88.80
52963;DHT22;38827;53.024;6.596;2023-10-19T11:16:07;10.90;88.90
52963;DHT22;38827;53.024;6.596;2023-10-19T11:18:39;10.90;88.80
52963;DHT22;38827;53.024;6.596;2023-10-19T11:21:07;10.90;88.70
52963;DHT22;38827;53.024;6.596;2023-10-19T11:23:43;11.00;88.80
52963;DHT22;38827;53.024;6.596;2023-10-19T11:26:19;11.00;88.80
52963;DHT22;38827;53.024;6.596;2023-10-19T11:29:02;11.00;88.80
52963;DHT22;38827;53.024;6.596;2023-10-19T11:31:33;11.00;88.90
52963;DHT22;38827;53.024;6.596;2023-10-19T11:34:36;11.00;88.90
52963;DHT22;38827;53.024;6.596;2023-10-19T11:43:07;10.90;89.10
52963;DHT22;38827;53.024;6.596;2023-10-19T11:49:10;11.00;89.00
52963;DHT22;38827;53.024;6.596;2023-10-19T11:51:56;11.00;89.00
52963;DHT22;38827;53.024;6.596;2023-10-19T11:55:00;11.10;88.80
52963;DHT22;38827;53.024;6.596;2023-10-19T11:57:42;11.10;89.00
52963;DHT22;38827;53.024;6.596;2023-10-19T12:00:20;11.20;89.10
52963;DHT22;38827;53.024;6.596;2023-10-19T12:03:18;11.30;89.00
52963;DHT22;38827;53.024;6.596;2023-10-19T12:05:58;11.40;88.70
52963;DHT22;38827;53.024;6.596;2023-10-19T12:08:37;11.40;88.50
52963;DHT22;38827;53.024;6.596;2023-10-19T12:11:26;11.40;88.20
52963;DHT22;38827;53.024;6.596;2023-10-19T12:14:12;11.40;87.90
52963;DHT22;38827;53.024;6.596;2023-10-19T12:17:13;11.40;88.10
52963;DHT22;38827;53.024;6.596;2023-10-19T12:19:54;11.40;87.90
52963;DHT22;38827;53.024;6.596;2023-10-19T12:22:37;11.40;88.20
52963;DHT22;38827;53.024;6.596;2023-10-19T12:25:22;11.40;88.10
52963;DHT22;38827;53.024;6.596;2023-10-19T12:28:40;11.40;87.90
52963;DHT22;38827;53.024;6.596;2023-10-19T12:31:49;11.40;87.70
52963;DHT22;38827;53.024;6.596;2023-10-19T12:37:39;11.30;87.70
52963;DHT22;38827;53.024;6.596;2023-10-19T12:40:15;11.20;87.80
52963;DHT22;38827;53.024;6.596;2023-10-19T12:43:08;11.20;87.90
52963;DHT22;38827;53.024;6.596;2023-10-19T12:46:03;11.20;87.90
52963;DHT22;38827;53.024;6.596;2023-10-19T12:49:03;11.20;88.00
52963;DHT22;38827;53.024;6.596;2023-10-19T12:51:41;11.10;88.10
52963;DHT22;38827;53.024;6.596;2023-10-19T12:54:46;11.10;88.40
52963;DHT22;38827;53.024;6.596;2023-10-19T12:57:35;11.10;87.90
52963;DHT22;38827;53.024;6.596;2023-10-19T13:00:04;11.10;88.20
52963;DHT22;38827;53.024;6.596;2023-10-19T13:02:57;11.10;88.20
52963;DHT22;38827;53.024;6.596;2023-10-19T13:05:43;11.00;88.30
52963;DHT22;38827;53.024;6.596;2023-10-19T13:08:38;11.00;88.30
52963;DHT22;38827;53.024;6.596;2023-10-19T13:11:16;10.90;88.20
52963;DHT22;38827;53.024;6.596;2023-10-19T13:14:01;10.90;88.50
52963;DHT22;38827;53.024;6.596;2023-10-19T13:16:50;10.90;88.50
52963;DHT22;38827;53.024;6.596;2023-10-19T13:19:36;10.90;88.50
52963;DHT22;38827;53.024;6.596;2023-10-19T13:22:41;10.90;88.50
52963;DHT22;38827;53.024;6.596;2023-10-19T13:25:24;10.80;88.70
52963;DHT22;38827;53.024;6.596;2023-10-19T13:28:29;10.80;88.80
52963;DHT22;38827;53.024;6.596;2023-10-19T13:31:21;10.80;88.90
52963;DHT22;38827;53.024;6.596;2023-10-19T13:33:51;10.80;88.80
52963;DHT22;38827;53.024;6.596;2023-10-19T13:36:41;10.80;88.80
52963;DHT22;38827;53.024;6.596;2023-10-19T13:42:39;10.70;88.70
52963;DHT22;38827;53.024;6.596;2023-10-19T13:45:35;10.70;88.80
52963;DHT22;38827;53.024;6.596;2023-10-19T13:48:23;10.60;89.00
52963;DHT22;38827;53.024;6.596;2023-10-19T13:51:03;10.60;89.10
52963;DHT22;38827;53.024;6.596;2023-10-19T13:53:44;10.60;89.10
52963;DHT22;38827;53.024;6.596;2023-10-19T13:56:18;10.60;89.10
52963;DHT22;38827;53.024;6.596;2023-10-19T13:59:06;10.60;89.10
52963;DHT22;38827;53.024;6.596;2023-10-19T14:02:19;10.60;89.20
52963;DHT22;38827;53.024;6.596;2023-10-19T14:05:39;10.50;89.10
52963;DHT22;38827;53.024;6.596;2023-10-19T14:11:53;10.40;89.20
52963;DHT22;38827;53.024;6.596;2023-10-19T14:14:52;10.40;89.50
52963;DHT22;38827;53.024;6.596;2023-10-19T14:21:26;10.50;89.50
52963;DHT22;38827;53.024;6.596;2023-10-19T14:26:54;10.40;89.60
52963;DHT22;38827;53.024;6.596;2023-10-19T14:29:35;10.40;89.70
52963;DHT22;38827;53.024;6.596;2023-10-19T14:32:19;10.40;89.60
52963;DHT22;38827;53.024;6.596;2023-10-19T14:34:57;10.40;89.70
52963;DHT22;38827;53.024;6.596;2023-10-19T14:37:25;10.40;89.80
52963;DHT22;38827;53.024;6.596;2023-10-19T14:39:58;10.40;89.80
52963;DHT22;38827;53.024;6.596;2023-10-19T14:42:27;10.40;89.80
52963;DHT22;38827;53.024;6.596;2023-10-19T14:44:58;10.40;89.90
52963;DHT22;38827;53.024;6.596;2023-10-19T14:47:38;10.30;90.00
52963;DHT22;38827;53.024;6.596;2023-10-19T14:50:18;10.30;90.00
52963;DHT22;38827;53.024;6.596;2023-10-19T14:56:01;10.30;90.00
52963;DHT22;38827;53.024;6.596;2023-10-19T14:58:38;10.20;90.10
52963;DHT22;38827;53.024;6.596;2023-10-19T15:01:15;10.30;90.20
52963;DHT22;38827;53.024;6.596;2023-10-19T15:04:24;10.30;90.20
52963;DHT22;38827;53.024;6.596;2023-10-19T15:07:15;10.20;90.20
52963;DHT22;38827;53.024;6.596;2023-10-19T15:09:52;10.10;90.50
52963;DHT22;38827;53.024;6.596;2023-10-19T15:12:31;10.10;90.60
52963;DHT22;38827;53.024;6.596;2023-10-19T15:15:28;10.20;90.30
52963;DHT22;38827;53.024;6.596;2023-10-19T15:18:15;10.10;90.40
52963;DHT22;38827;53.024;6.596;2023-10-19T15:21:11;10.10;90.40
52963;DHT22;38827;53.024;6.596;2023-10-19T15:23:42;10.10;90.40
52963;DHT22;38827;53.024;6.596;2023-10-19T15:26:21;10.10;90.60
52963;DHT22;38827;53.024;6.596;2023-10-19T15:29:03;10.10;90.50
52963;DHT22;38827;53.024;6.596;2023-10-19T15:31:43;10.10;90.60
52963;DHT22;38827;53.024;6.596;2023-10-19T15:34:15;10.10;90.70
52963;DHT22;38827;53.024;6.596;2023-10-19T15:36:43;10.10;90.60
52963;DHT22;38827;53.024;6.596;2023-10-19T15:39:27;10.10;90.60
52963;DHT22;38827;53.024;6.596;2023-10-19T15:42:07;10.10;90.50
52963;DHT22;38827;53.024;6.596;2023-10-19T15:44:37;10.00;90.80
52963;DHT22;38827;53.024;6.596;2023-10-19T15:47:18;10.00;90.90
52963;DHT22;38827;53.024;6.596;2023-10-19T15:49:56;10.00;90.90
52963;DHT22;38827;53.024;6.596;2023-10-19T15:52:35;10.00;90.80
52963;DHT22;38827;53.024;6.596;2023-10-19T15:55:15;9.90;90.90
52963;DHT22;38827;53.024;6.596;2023-10-19T15:57:49;9.90;90.90
52963;DHT22;38827;53.024;6.596;2023-10-19T16:00:35;9.90;90.90
52963;DHT22;38827;53.024;6.596;2023-10-19T16:03:14;9.80;91.10
52963;DHT22;38827;53.024;6.596;2023-10-19T16:05:45;9.80;91.00
52963;DHT22;38827;53.024;6.596;2023-10-19T16:08:27;9.80;91.20
52963;DHT22;38827;53.024;6.596;2023-10-19T16:10:58;9.80;91.30
52963;DHT22;38827;53.024;6.596;2023-10-19T16:13:33;9.80;91.20
52963;DHT22;38827;53.024;6.596;2023-10-19T16:16:07;9.80;91.30
52963;DHT22;38827;53.024;6.596;2023-10-19T16:18:45;9.70;91.40
52963;DHT22;38827;53.024;6.596;2023-10-19T16:21:19;9.70;91.40
52963;DHT22;38827;53.024;6.596;2023-10-19T16:23:59;9.70;91.40
52963;DHT22;38827;53.024;6.596;2023-10-19T16:26:28;9.70;91.50
52963;DHT22;38827;53.024;6.596;2023-10-19T16:29:28;9.70;91.50
52963;DHT22;38827;53.024;6.596;2023-10-19T16:32:07;9.70;91.50
52963;DHT22;38827;53.024;6.596;2023-10-19T16:34:45;9.70;91.60
52963;DHT22;38827;53.024;6.596;2023-10-19T16:37:11;9.70;91.60
52963;DHT22;38827;53.024;6.596;2023-10-19T16:39:42;9.70;91.70
52963;DHT22;38827;53.024;6.596;2023-10-19T16:42:12;9.70;91.70
52963;DHT22;38827;53.024;6.596;2023-10-19T16:44:49;9.60;91.80
52963;DHT22;38827;53.024;6.596;2023-10-19T16:47:21;9.60;91.90
52963;DHT22;38827;53.024;6.596;2023-10-19T16:49:53;9.60;91.70
52963;DHT22;38827;53.024;6.596;2023-10-19T16:52:24;9.60;91.90
52963;DHT22;38827;53.024;6.596;2023-10-19T16:54:53;9.60;91.80
52963;DHT22;38827;53.024;6.596;2023-10-19T16:57:24;9.60;91.90
52963;DHT22;38827;53.024;6.596;2023-10-19T16:59:52;9.60;91.90
52963;DHT22;38827;53.024;6.596;2023-10-19T17:02:22;9.60;92.00
52963;DHT22;38827;53.024;6.596;2023-10-19T17:04:55;9.60;91.90